Time;durP1;ratioP1;P1;durP2;ratioP2;P2;SDS_P1;SDS_P2;PMS_P1;PMS_P2;Temp;Humidity;BMP_temperature;BMP_pressure;BME280_temperature;BME280_humidity;BME280_pressure;Samples;Min_cycle;Max_cycle;Signal;HPM_P1;HPM_P2
2022/10/11 00:01:29;;;;;;;10.13;7.90;;;23.40;99.90;;;;;;6231066;27;89046;-67
2022/10/11 00:04:33;;;;;;;8.80;7.90;;;23.40;99.90;;;;;;6253023;27;89512;-67
2022/10/11 00:07:36;;;;;;;9.27;8.38;;;23.40;99.90;;;;;;6241574;27;89036;-67
2022/10/11 00:10:38;;;;;;;9.43;7.80;;;23.40;99.90;;;;;;6255593;27;88406;-67
2022/10/11 00:13:40;;;;;;;10.23;8.07;;;23.40;99.90;;;;;;6243247;27;87909;-66
2022/10/11 00:16:43;;;;;;;8.88;7.75;;;23.40;99.90;;;;;;6241896;27;88243;-67
2022/10/11 00:19:46;;;;;;;9.50;7.65;;;23.40;99.90;;;;;;6245839;27;89358;-66
2022/10/11 00:22:49;;;;;;;8.52;7.63;;;23.40;99.90;;;;;;6249276;27;89132;-67
2022/10/11 00:25:57;;;;;;;9.20;8.02;;;23.40;99.90;;;;;;6241735;27;87934;-67
2022/10/11 00:28:59;;;;;;;9.55;8.60;;;23.40;99.90;;;;;;6238313;27;89077;-66
2022/10/11 00:32:01;;;;;;;10.05;8.32;;;23.40;99.90;;;;;;6233735;27;89434;-67
2022/10/11 00:35:05;;;;;;;10.05;8.57;;;23.30;99.90;;;;;;6241965;27;89107;-67
2022/10/11 00:38:07;;;;;;;9.88;8.35;;;23.40;99.90;;;;;;6255809;27;89156;-66
2022/10/11 00:41:10;;;;;;;9.65;8.65;;;23.30;99.90;;;;;;6248460;27;88301;-67
2022/10/11 00:44:14;;;;;;;9.18;8.27;;;23.30;99.90;;;;;;6237521;27;89170;-67
2022/10/11 00:47:19;;;;;;;9.57;8.55;;;23.30;99.90;;;;;;6235905;27;89101;-67
2022/10/11 00:50:24;;;;;;;9.57;8.65;;;23.40;99.90;;;;;;6230915;27;89944;-67
2022/10/11 00:53:28;;;;;;;9.63;8.15;;;23.30;99.90;;;;;;6242146;27;88245;-67
2022/10/11 00:56:33;;;;;;;9.90;8.60;;;23.30;99.90;;;;;;6246316;27;89116;-66
2022/10/11 00:59:39;;;;;;;10.23;9.15;;;23.30;99.90;;;;;;6253996;27;89100;-67
2022/10/11 01:02:42;;;;;;;10.65;8.98;;;23.30;99.90;;;;;;6244031;27;87991;-67
2022/10/11 01:05:46;;;;;;;9.52;8.50;;;23.30;99.90;;;;;;6243582;28;90496;-67
2022/10/11 01:08:48;;;;;;;10.38;9.20;;;23.30;99.90;;;;;;6244055;27;89069;-66
2022/10/11 01:11:53;;;;;;;9.95;8.95;;;23.30;99.90;;;;;;6254376;27;88313;-67
2022/10/11 01:15:08;;;;;;;9.88;8.88;;;23.30;99.90;;;;;;6241660;27;89094;-66
2022/10/11 01:18:19;;;;;;;10.13;9.13;;;23.30;99.90;;;;;;6249481;27;89079;-66
2022/10/11 01:21:33;;;;;;;9.90;8.90;;;23.30;99.90;;;;;;6249045;27;89943;-67
2022/10/11 01:24:57;;;;;;;10.45;9.45;;;23.30;99.90;;;;;;6240852;27;89142;-67
2022/10/11 01:28:19;;;;;;;9.57;8.65;;;23.30;99.90;;;;;;6241398;27;89004;-66
2022/10/11 01:31:28;;;;;;;10.55;9.45;;;23.30;99.90;;;;;;6250429;27;89045;-67
2022/10/11 01:34:36;;;;;;;11.20;10.00;;;23.30;99.90;;;;;;6245123;27;89595;-66
2022/10/11 01:37:42;;;;;;;10.55;9.25;;;23.30;99.90;;;;;;6256365;27;89103;-66
2022/10/11 01:40:50;;;;;;;10.82;9.73;;;23.30;99.90;;;;;;6253303;27;89097;-66
2022/10/11 01:43:57;;;;;;;11.27;10.10;;;23.30;99.90;;;;;;6255315;27;87540;-66
2022/10/11 01:47:00;;;;;;;10.88;9.77;;;23.20;99.90;;;;;;6246379;27;91246;-66
2022/10/11 01:50:03;;;;;;;10.98;9.88;;;23.30;99.90;;;;;;6246405;27;89118;-66
2022/10/11 01:53:31;;;;;;;11.20;10.10;;;23.30;99.90;;;;;;6241980;27;89928;-66
2022/10/11 01:56:54;;;;;;;10.48;9.38;;;23.30;99.90;;;;;;6246739;27;89291;-67
2022/10/11 02:00:06;;;;;;;11.75;10.50;;;23.30;99.90;;;;;;6251354;28;89403;-67
2022/10/11 02:03:23;;;;;;;11.10;10.00;;;23.30;99.90;;;;;;6252025;28;87953;-66
2022/10/11 02:06:32;;;;;;;11.70;10.50;;;23.30;99.90;;;;;;6252398;27;89399;-67
2022/10/11 02:09:38;;;;;;;11.73;10.52;;;23.20;99.90;;;;;;6250241;27;88503;-66
2022/10/11 02:12:43;;;;;;;12.02;10.82;;;23.30;99.90;;;;;;6249655;27;89197;-67
2022/10/11 02:15:48;;;;;;;11.63;10.50;;;23.30;99.90;;;;;;6249385;27;88360;-67
2022/10/11 02:18:54;;;;;;;12.38;11.07;;;23.20;99.90;;;;;;6249545;27;87986;-66
2022/10/11 02:22:03;;;;;;;11.77;10.60;;;23.20;99.90;;;;;;6247442;27;89092;-67
2022/10/11 02:25:09;;;;;;;11.98;10.68;;;23.20;99.90;;;;;;6253239;27;90030;-66
2022/10/11 02:28:14;;;;;;;11.68;10.48;;;23.30;99.90;;;;;;6243707;27;89655;-66
2022/10/11 02:31:19;;;;;;;12.15;10.85;;;23.20;99.90;;;;;;6249101;27;89212;-66
2022/10/11 02:34:25;;;;;;;11.35;10.20;;;23.20;99.90;;;;;;6249726;27;89090;-67
2022/10/11 02:37:32;;;;;;;11.77;10.68;;;23.20;99.90;;;;;;6245986;27;88122;-66
2022/10/11 02:40:39;;;;;;;12.35;10.95;;;23.20;99.90;;;;;;6250160;27;89166;-67
2022/10/11 02:43:47;;;;;;;11.68;10.52;;;23.20;99.90;;;;;;6256524;27;88017;-67
2022/10/11 02:46:51;;;;;;;11.55;10.45;;;23.20;99.90;;;;;;6255041;27;88663;-67
2022/10/11 02:49:55;;;;;;;12.40;11.15;;;23.20;99.90;;;;;;6254758;27;88008;-67
2022/10/11 02:52:56;;;;;;;11.60;10.50;;;23.20;99.90;;;;;;6242371;27;87778;-67
2022/10/11 02:55:58;;;;;;;11.77;10.63;;;23.20;99.90;;;;;;6243957;27;90153;-66
2022/10/11 02:59:00;;;;;;;12.50;11.00;;;23.10;99.90;;;;;;6256717;27;89351;-67
2022/10/11 03:02:02;;;;;;;12.43;10.98;;;23.10;99.90;;;;;;6255787;27;89051;-66
2022/10/11 03:05:07;;;;;;;12.05;10.85;;;23.10;99.90;;;;;;6256270;27;89150;-67
2022/10/11 03:08:10;;;;;;;12.60;10.85;;;23.20;99.90;;;;;;6254942;27;89122;-67
2022/10/11 03:11:12;;;;;;;11.85;10.65;;;23.20;99.90;;;;;;6244172;27;89132;-67
2022/10/11 03:14:14;;;;;;;11.80;10.60;;;23.20;99.90;;;;;;6236831;27;87913;-66
2022/10/11 03:17:16;;;;;;;11.93;10.73;;;23.20;99.90;;;;;;6241965;27;88414;-66
2022/10/11 03:20:19;;;;;;;11.95;10.75;;;23.10;99.90;;;;;;6252705;27;89049;-67
2022/10/11 03:23:21;;;;;;;11.88;10.68;;;23.20;99.90;;;;;;6250372;27;89134;-67
2022/10/11 03:26:24;;;;;;;12.13;10.82;;;23.20;99.90;;;;;;6254822;27;90000;-66
2022/10/11 03:29:26;;;;;;;11.52;10.43;;;23.10;99.90;;;;;;6248674;27;89317;-66
2022/10/11 03:32:29;;;;;;;11.80;10.60;;;23.10;99.90;;;;;;6249514;27;89391;-66
2022/10/11 03:35:32;;;;;;;11.77;10.63;;;23.10;99.90;;;;;;6248881;27;87881;-66
2022/10/11 03:38:34;;;;;;;11.98;10.77;;;23.20;99.90;;;;;;6255341;27;89036;-66
2022/10/11 03:41:36;;;;;;;11.98;10.77;;;23.10;99.90;;;;;;6243457;27;88950;-66
2022/10/11 03:44:38;;;;;;;11.50;10.32;;;23.10;99.90;;;;;;6248616;27;89082;-66
2022/10/11 03:47:40;;;;;;;12.48;11.27;;;23.10;99.90;;;;;;6253930;27;88363;-66
2022/10/11 03:50:44;;;;;;;11.40;10.30;;;23.10;99.90;;;;;;6254962;28;89120;-66
2022/10/11 03:53:46;;;;;;;11.70;10.50;;;23.10;99.90;;;;;;6245817;27;88978;-66
2022/10/11 03:56:48;;;;;;;11.80;10.60;;;23.10;99.90;;;;;;6249068;27;90062;-66
2022/10/11 03:59:50;;;;;;;11.13;10.02;;;23.10;99.90;;;;;;6248776;27;89082;-66
2022/10/11 04:02:52;;;;;;;11.70;10.60;;;23.20;99.90;;;;;;6251042;27;89070;-66
2022/10/11 04:05:55;;;;;;;12.20;10.90;;;23.20;99.90;;;;;;6236332;27;89087;-66
2022/10/11 04:08:58;;;;;;;11.68;10.48;;;23.20;99.90;;;;;;6237859;27;88631;-66
2022/10/11 04:11:59;;;;;;;11.55;10.40;;;23.20;99.90;;;;;;6254773;27;89058;-66
2022/10/11 04:15:01;;;;;;;11.38;10.27;;;23.20;99.90;;;;;;6247383;27;89611;-66
2022/10/11 04:18:04;;;;;;;11.57;10.48;;;23.20;99.90;;;;;;6242075;27;88323;-66
2022/10/11 04:21:08;;;;;;;11.80;10.65;;;23.20;99.90;;;;;;6252879;27;89127;-66
2022/10/11 04:24:11;;;;;;;10.57;9.57;;;23.20;99.90;;;;;;6243392;27;90812;-65
2022/10/11 04:27:13;;;;;;;12.18;10.98;;;23.20;99.90;;;;;;6248293;27;90070;-66
2022/10/11 04:30:15;;;;;;;11.30;10.20;;;23.20;99.90;;;;;;6254867;27;89159;-66
2022/10/11 04:33:17;;;;;;;11.25;10.05;;;23.20;99.90;;;;;;6251120;27;89034;-66
2022/10/11 04:36:21;;;;;;;12.10;10.90;;;23.20;99.90;;;;;;6252105;27;89077;-67
2022/10/11 04:39:23;;;;;;;12.05;10.85;;;23.30;99.90;;;;;;6242117;27;89380;-66
2022/10/11 04:42:25;;;;;;;11.60;10.40;;;23.30;99.90;;;;;;6243346;27;88047;-66
2022/10/11 04:45:27;;;;;;;12.32;10.75;;;23.30;99.90;;;;;;6253260;27;89138;-67
2022/10/11 04:48:29;;;;;;;12.48;10.60;;;23.30;99.90;;;;;;6245792;27;88379;-67
2022/10/11 04:51:33;;;;;;;9.90;8.90;;;23.30;99.90;;;;;;6249212;27;88979;-66
2022/10/11 04:54:35;;;;;;;11.00;9.30;;;23.30;99.90;;;;;;6247684;27;89280;-66
2022/10/11 04:57:37;;;;;;;10.45;8.68;;;23.30;99.90;;;;;;6253545;27;90397;-66
2022/10/11 05:00:39;;;;;;;12.38;9.10;;;23.30;99.90;;;;;;6243532;27;89123;-67
2022/10/11 05:03:41;;;;;;;10.48;9.10;;;23.30;99.90;;;;;;6252998;27;89049;-67
2022/10/11 05:06:45;;;;;;;10.10;9.10;;;23.30;99.90;;;;;;6252001;27;89043;-67
2022/10/11 05:09:47;;;;;;;12.52;9.32;;;23.30;99.90;;;;;;6253223;27;87926;-67
2022/10/11 05:12:49;;;;;;;12.27;9.45;;;23.30;99.90;;;;;;6258464;27;89353;-67
2022/10/11 05:15:51;;;;;;;10.63;8.80;;;23.30;99.90;;;;;;6259273;27;87964;-67
2022/10/11 05:18:53;;;;;;;11.20;9.10;;;23.30;99.90;;;;;;6254015;27;88703;-66
2022/10/11 05:21:57;;;;;;;11.65;9.30;;;23.30;99.90;;;;;;6239452;27;89075;-67
2022/10/11 05:24:59;;;;;;;11.70;9.20;;;23.30;99.90;;;;;;6257145;27;89137;-67
2022/10/11 05:28:01;;;;;;;11.75;9.27;;;23.30;99.90;;;;;;6250990;27;90049;-67
2022/10/11 05:31:03;;;;;;;10.52;9.00;;;23.30;99.90;;;;;;6247539;27;89057;-66
2022/10/11 05:34:05;;;;;;;11.57;9.32;;;23.30;99.90;;;;;;6247321;27;89085;-67
2022/10/11 05:37:08;;;;;;;10.52;9.07;;;23.30;99.90;;;;;;6246920;27;87892;-67
2022/10/11 05:40:11;;;;;;;12.95;9.18;;;23.30;99.90;;;;;;6238705;27;89057;-67
2022/10/11 05:43:13;;;;;;;11.93;9.60;;;23.30;99.90;;;;;;6258727;27;89116;-66
2022/10/11 05:46:15;;;;;;;11.50;9.27;;;23.30;99.90;;;;;;6246658;28;87967;-67
2022/10/11 05:49:17;;;;;;;11.05;9.40;;;23.40;99.90;;;;;;6258372;27;91317;-67
2022/10/11 05:52:21;;;;;;;10.93;9.82;;;23.30;99.90;;;;;;6245787;27;89056;-67
2022/10/11 05:55:23;;;;;;;11.57;9.10;;;23.40;99.90;;;;;;6246008;27;89028;-67
2022/10/11 05:58:25;;;;;;;13.00;9.10;;;23.40;99.90;;;;;;6244485;27;89205;-67
2022/10/11 06:01:28;;;;;;;10.90;9.18;;;23.30;99.90;;;;;;6244775;27;89469;-67
2022/10/11 06:04:29;;;;;;;10.95;9.30;;;23.40;99.90;;;;;;6244182;27;89069;-67
2022/10/11 06:07:35;;;;;;;10.88;9.30;;;23.30;99.90;;;;;;6256401;27;89287;-67
2022/10/11 06:10:37;;;;;;;11.25;9.48;;;23.30;99.90;;;;;;6250031;28;89065;-67
2022/10/11 06:13:40;;;;;;;10.48;9.27;;;23.40;99.90;;;;;;6233682;27;89025;-66
2022/10/11 06:16:42;;;;;;;11.98;9.77;;;23.40;99.90;;;;;;6246542;27;88020;-66
2022/10/11 06:19:44;;;;;;;10.70;9.38;;;23.30;99.90;;;;;;6254359;28;89147;-67
2022/10/11 06:22:47;;;;;;;9.90;8.95;;;23.30;99.90;;;;;;6239366;27;89032;-66
2022/10/11 06:25:56;;;;;;;9.75;8.75;;;23.30;99.90;;;;;;6249446;27;88999;-67
2022/10/11 06:28:58;;;;;;;10.95;9.65;;;23.30;99.90;;;;;;6254757;27;90707;-66
2022/10/11 06:32:00;;;;;;;9.65;8.68;;;23.40;99.90;;;;;;6257465;27;89014;-66
2022/10/11 06:35:04;;;;;;;12.40;9.15;;;23.40;99.90;;;;;;6256565;27;88776;-66
2022/10/11 06:38:07;;;;;;;10.35;8.93;;;23.40;99.90;;;;;;6249232;27;89140;-66
2022/10/11 06:41:11;;;;;;;9.77;8.77;;;23.40;99.90;;;;;;6246249;27;87992;-67
2022/10/11 06:44:14;;;;;;;9.38;8.48;;;23.30;99.90;;;;;;6255636;27;88937;-67
2022/10/11 06:47:16;;;;;;;11.98;9.05;;;23.40;99.90;;;;;;6248605;27;89103;-67
2022/10/11 06:50:18;;;;;;;9.48;8.45;;;23.40;99.90;;;;;;6244418;27;88347;-67
2022/10/11 06:53:21;;;;;;;10.23;8.65;;;23.40;99.90;;;;;;6258524;27;88312;-67
2022/10/11 06:56:24;;;;;;;9.38;8.48;;;23.40;99.90;;;;;;6243853;27;88971;-66
2022/10/11 06:59:26;;;;;;;9.48;8.10;;;23.40;99.90;;;;;;6246774;27;90143;-67
2022/10/11 07:02:28;;;;;;;9.90;8.90;;;23.40;99.90;;;;;;6253344;27;89342;-66
2022/10/11 07:05:33;;;;;;;9.27;8.32;;;23.40;99.90;;;;;;6256199;27;89883;-67
2022/10/11 07:08:37;;;;;;;9.70;8.63;;;23.40;99.90;;;;;;6251746;27;88955;-67
2022/10/11 07:11:39;;;;;;;10.27;8.50;;;23.40;99.90;;;;;;6256820;27;88908;-66
2022/10/11 07:14:41;;;;;;;8.88;8.07;;;23.40;99.90;;;;;;6255845;27;88895;-66
2022/10/11 07:17:43;;;;;;;9.55;8.55;;;23.40;99.90;;;;;;6256471;27;87965;-66
2022/10/11 07:20:45;;;;;;;9.30;8.30;;;23.40;99.90;;;;;;6256122;27;88318;-67
2022/10/11 07:23:48;;;;;;;8.43;7.63;;;23.40;99.90;;;;;;6246320;27;89353;-67
2022/10/11 07:26:50;;;;;;;9.20;8.30;;;23.40;99.90;;;;;;6257133;27;89522;-67
2022/10/11 07:29:52;;;;;;;8.82;7.95;;;23.40;99.90;;;;;;6255969;27;90016;-66
2022/10/11 07:32:54;;;;;;;9.00;7.93;;;23.40;99.90;;;;;;6255849;27;87975;-67
2022/10/11 07:35:57;;;;;;;8.07;7.28;;;23.40;99.90;;;;;;6256089;27;89200;-67
2022/10/11 07:39:03;;;;;;;8.82;7.90;;;23.40;99.90;;;;;;6250724;27;87942;-67
2022/10/11 07:42:05;;;;;;;8.45;7.65;;;23.40;99.90;;;;;;6250160;27;89090;-67
2022/10/11 07:45:08;;;;;;;8.88;8.00;;;23.40;99.90;;;;;;6253577;27;89175;-67
2022/10/11 07:48:10;;;;;;;8.75;7.85;;;23.40;99.90;;;;;;6245678;27;89034;-67
2022/10/11 07:51:13;;;;;;;8.25;7.45;;;23.40;99.90;;;;;;6256575;27;88435;-67
2022/10/11 07:54:17;;;;;;;7.85;7.15;;;23.40;99.90;;;;;;6254906;27;89021;-66
2022/10/11 07:57:19;;;;;;;8.07;7.28;;;23.40;99.90;;;;;;6255649;27;89209;-67
2022/10/11 08:00:21;;;;;;;8.43;7.53;;;23.40;99.90;;;;;;6247932;27;90011;-67
2022/10/11 08:03:23;;;;;;;9.25;8.30;;;23.40;99.90;;;;;;6248845;27;89060;-67
2022/10/11 08:06:43;;;;;;;8.60;7.70;;;23.40;99.90;;;;;;6252313;27;88741;-67
2022/10/11 08:09:46;;;;;;;7.80;7.00;;;23.40;99.90;;;;;;6255917;28;89268;-67
2022/10/11 08:12:48;;;;;;;8.02;7.22;;;23.40;99.90;;;;;;6240910;27;89012;-67
2022/10/11 08:15:50;;;;;;;7.63;6.93;;;23.40;99.90;;;;;;6254405;27;89533;-67
2022/10/11 08:18:55;;;;;;;7.57;6.88;;;23.40;99.90;;;;;;6251770;27;88051;-67
2022/10/11 08:21:57;;;;;;;8.18;7.47;;;23.40;99.90;;;;;;6256685;27;87191;-67
2022/10/11 08:25:01;;;;;;;7.95;7.25;;;23.40;99.90;;;;;;6254396;27;89011;-67
2022/10/11 08:28:02;;;;;;;7.80;7.00;;;23.40;99.90;;;;;;6242934;27;89150;-67
2022/10/11 08:31:05;;;;;;;8.10;7.07;;;23.40;99.90;;;;;;6248740;27;90029;-66
2022/10/11 08:34:07;;;;;;;7.93;7.13;;;23.40;99.90;;;;;;6248334;27;88999;-67
2022/10/11 08:37:09;;;;;;;7.60;6.90;;;23.40;99.90;;;;;;6254673;27;88940;-66
2022/10/11 08:40:16;;;;;;;7.20;6.50;;;23.40;99.90;;;;;;6249142;27;89135;-67
2022/10/11 08:43:30;;;;;;;7.68;6.90;;;23.40;99.90;;;;;;6246368;27;89032;-67
2022/10/11 08:46:36;;;;;;;7.57;6.80;;;23.40;99.90;;;;;;6244007;27;87965;-67
2022/10/11 08:49:39;;;;;;;7.45;6.75;;;23.40;99.90;;;;;;6245988;27;89235;-66
2022/10/11 08:52:48;;;;;;;7.40;6.80;;;23.40;99.90;;;;;;6260625;27;88352;-67
2022/10/11 08:55:54;;;;;;;7.07;6.45;;;23.40;99.90;;;;;;6235860;27;88010;-67
2022/10/11 08:59:00;;;;;;;7.57;6.72;;;23.40;99.90;;;;;;6258024;27;89143;-67
2022/10/11 09:02:15;;;;;;;7.65;6.82;;;23.40;99.90;;;;;;6246277;27;90381;-67
2022/10/11 09:05:19;;;;;;;6.93;6.22;;;23.40;99.90;;;;;;6257904;27;89086;-67
2022/10/11 09:08:28;;;;;;;7.35;6.65;;;23.40;99.90;;;;;;6252231;27;89174;-67
2022/10/11 09:11:40;;;;;;;7.57;6.60;;;23.40;99.90;;;;;;6256817;27;89051;-67
2022/10/11 09:15:02;;;;;;;7.90;6.43;;;23.50;99.90;;;;;;6249376;27;89113;-67
2022/10/11 09:18:23;;;;;;;6.90;6.20;;;23.40;99.90;;;;;;6259782;27;88979;-67
2022/10/11 09:21:33;;;;;;;7.25;6.55;;;23.40;99.90;;;;;;6253115;27;89383;-67
2022/10/11 09:24:55;;;;;;;6.68;6.05;;;23.40;99.90;;;;;;6254666;27;88356;-67
2022/10/11 09:28:12;;;;;;;7.30;6.60;;;23.40;99.90;;;;;;6258906;27;88235;-67
2022/10/11 09:31:14;;;;;;;6.72;6.13;;;23.40;99.90;;;;;;6251088;27;89146;-67
2022/10/11 09:34:16;;;;;;;6.47;5.85;;;23.40;99.90;;;;;;6245622;27;90322;-67
2022/10/11 09:37:28;;;;;;;7.22;5.88;;;23.40;99.90;;;;;;6239845;27;89081;-67
2022/10/11 09:40:43;;;;;;;7.43;5.88;;;23.40;99.90;;;;;;6256353;27;89255;-67
2022/10/11 09:43:49;;;;;;;6.80;6.20;;;23.40;99.90;;;;;;6258533;27;89063;-67
2022/10/11 09:46:53;;;;;;;6.68;6.05;;;23.40;99.90;;;;;;6253595;27;89227;-67
2022/10/11 09:49:59;;;;;;;6.60;5.90;;;23.40;99.90;;;;;;6248950;27;89494;-67
2022/10/11 09:53:06;;;;;;;7.32;6.63;;;23.40;99.90;;;;;;6244718;27;89137;-67
2022/10/11 09:56:08;;;;;;;7.55;6.85;;;23.50;99.90;;;;;;6234146;27;88270;-67
2022/10/11 09:59:25;;;;;;;6.50;5.90;;;23.50;99.90;;;;;;6246017;27;89116;-67
2022/10/11 10:02:28;;;;;;;6.78;6.05;;;23.50;99.90;;;;;;6256957;27;89097;-67
2022/10/11 10:05:31;;;;;;;6.20;5.60;;;23.50;99.90;;;;;;6246178;27;90047;-67
2022/10/11 10:08:34;;;;;;;6.32;5.72;;;23.50;99.90;;;;;;6251270;27;89316;-67
2022/10/11 10:11:37;;;;;;;6.32;5.72;;;23.50;99.90;;;;;;6248304;27;87972;-67
2022/10/11 10:14:41;;;;;;;6.13;5.53;;;23.50;99.90;;;;;;6256209;27;87954;-66
2022/10/11 10:17:49;;;;;;;5.90;5.40;;;23.50;99.90;;;;;;6256276;27;89053;-67
2022/10/11 10:20:53;;;;;;;6.05;5.45;;;23.50;99.90;;;;;;6248022;27;89040;-67
2022/10/11 10:23:56;;;;;;;6.60;5.93;;;23.50;99.90;;;;;;6257217;27;89465;-66
2022/10/11 10:27:17;;;;;;;6.85;5.57;;;23.50;99.90;;;;;;6246865;27;88368;-67
2022/10/11 10:30:20;;;;;;;6.30;5.70;;;23.50;99.90;;;;;;6247164;27;89395;-67
2022/10/11 10:33:24;;;;;;;6.82;5.70;;;23.50;99.90;;;;;;6246407;27;89022;-67
2022/10/11 10:36:32;;;;;;;6.10;5.50;;;23.50;99.90;;;;;;6255808;27;90067;-67
2022/10/11 10:39:39;;;;;;;5.50;5.00;;;23.50;99.90;;;;;;6245699;27;89136;-66
2022/10/11 10:42:41;;;;;;;5.90;5.40;;;23.50;99.90;;;;;;6254514;27;89372;-67
2022/10/11 10:46:02;;;;;;;6.00;5.40;;;23.50;99.90;;;;;;6256052;27;89157;-66
2022/10/11 10:49:11;;;;;;;5.82;5.25;;;23.50;99.90;;;;;;6255487;27;89076;-67
2022/10/11 10:52:46;;;;;;;6.10;5.50;;;23.50;99.90;;;;;;6257969;27;89053;-67
2022/10/11 10:55:52;;;;;;;5.78;5.25;;;23.50;99.90;;;;;;6234015;27;88087;-67
2022/10/11 10:59:13;;;;;;;5.80;5.30;;;23.50;99.90;;;;;;6243897;27;89014;-67
2022/10/11 11:02:20;;;;;;;5.53;5.03;;;23.50;99.90;;;;;;6256172;27;89108;-67
2022/10/11 11:05:31;;;;;;;5.80;5.20;;;23.60;99.90;;;;;;6243436;27;89029;-67
2022/10/11 11:08:47;;;;;;;5.85;5.20;;;23.50;99.90;;;;;;6254849;27;90100;-66
2022/10/11 11:11:57;;;;;;;5.47;4.97;;;23.50;99.90;;;;;;6257707;27;89061;-67
2022/10/11 11:15:03;;;;;;;5.85;5.28;;;23.50;99.90;;;;;;6244923;27;89574;-67
2022/10/11 11:18:24;;;;;;;5.65;5.05;;;23.50;99.90;;;;;;6255963;27;88988;-67
2022/10/11 11:21:38;;;;;;;5.60;5.10;;;23.50;99.90;;;;;;6244416;28;87957;-67
2022/10/11 11:24:54;;;;;;;4.78;4.38;;;23.60;99.90;;;;;;6251419;27;88141;-67
2022/10/11 11:28:07;;;;;;;4.97;4.57;;;23.50;99.90;;;;;;6254734;27;89051;-67
2022/10/11 11:31:17;;;;;;;5.20;4.70;;;23.60;99.90;;;;;;6248821;27;88758;-67
2022/10/11 11:34:25;;;;;;;5.55;4.78;;;23.50;99.90;;;;;;6248854;27;89119;-67
2022/10/11 11:37:32;;;;;;;5.32;4.82;;;23.50;99.90;;;;;;6253389;27;89137;-67
2022/10/11 11:40:38;;;;;;;5.28;4.78;;;23.60;99.90;;;;;;6252728;27;90376;-67
2022/10/11 11:43:54;;;;;;;5.47;4.97;;;23.50;99.90;;;;;;6251982;27;87965;-67
2022/10/11 11:47:01;;;;;;;5.35;4.85;;;23.50;99.90;;;;;;6249783;27;89180;-67
2022/10/11 11:50:21;;;;;;;4.90;4.50;;;23.60;99.90;;;;;;6254019;27;88989;-67
2022/10/11 11:53:34;;;;;;;5.07;4.60;;;23.50;99.90;;;;;;6251954;27;89071;-67
2022/10/11 11:56:51;;;;;;;5.18;4.68;;;23.50;99.90;;;;;;6245201;27;89039;-67
2022/10/11 11:59:59;;;;;;;5.20;4.70;;;23.50;99.90;;;;;;6236067;27;89148;-66
2022/10/11 12:03:08;;;;;;;5.10;4.65;;;23.60;99.90;;;;;;6239560;27;88322;-67
2022/10/11 12:06:26;;;;;;;4.90;4.45;;;23.50;99.90;;;;;;6246860;27;89049;-67
2022/10/11 12:09:30;;;;;;;4.90;4.43;;;23.50;99.90;;;;;;6250029;27;89501;-67
2022/10/11 12:12:34;;;;;;;4.85;4.45;;;23.50;99.90;;;;;;6252986;27;90014;-67
2022/10/11 12:15:37;;;;;;;4.80;4.38;;;23.50;99.90;;;;;;6255172;27;89076;-67
2022/10/11 12:18:51;;;;;;;5.20;4.70;;;23.50;99.90;;;;;;6250256;27;89065;-67
2022/10/11 12:22:19;;;;;;;4.50;4.10;;;23.50;99.90;;;;;;6247085;27;89172;-67
2022/10/11 12:25:40;;;;;;;4.60;4.20;;;23.60;99.90;;;;;;6231482;27;87906;-67
2022/10/11 12:29:01;;;;;;;4.88;4.45;;;23.60;99.90;;;;;;6231531;27;89058;-67
2022/10/11 12:32:51;;;;;;;4.82;4.40;;;23.50;99.90;;;;;;6255215;27;89044;-67
2022/10/11 12:36:01;;;;;;;4.95;4.50;;;23.60;99.90;;;;;;6249618;27;87513;-67
2022/10/11 12:39:49;;;;;;;4.40;4.00;;;23.50;99.90;;;;;;6250049;27;89342;-66
2022/10/11 12:43:12;;;;;;;4.85;4.35;;;23.50;99.90;;;;;;6243326;27;88992;-67
2022/10/11 12:46:33;;;;;;;4.70;4.30;;;23.50;99.90;;;;;;6254429;27;88891;-67
2022/10/11 12:49:47;;;;;;;4.45;4.05;;;23.50;99.90;;;;;;6231719;27;89280;-67
2022/10/11 12:52:58;;;;;;;4.38;3.97;;;23.60;99.90;;;;;;6231347;28;89236;-67
2022/10/11 12:56:05;;;;;;;4.60;4.20;;;23.50;99.90;;;;;;6230910;27;89077;-67
2022/10/11 12:59:18;;;;;;;4.57;4.18;;;23.50;99.90;;;;;;6255875;27;89462;-67
2022/10/11 13:02:29;;;;;;;4.50;4.10;;;23.50;99.90;;;;;;6254808;27;89171;-67
2022/10/11 13:05:35;;;;;;;5.22;4.40;;;23.60;99.90;;;;;;6230488;28;89006;-67
2022/10/11 13:08:42;;;;;;;4.32;3.92;;;23.50;99.90;;;;;;6240129;27;88539;-67
2022/10/11 13:11:50;;;;;;;4.47;4.07;;;23.50;99.90;;;;;;6254281;27;89058;-67
2022/10/11 13:15:02;;;;;;;4.40;4.00;;;23.50;99.90;;;;;;6254215;27;89520;-66
2022/10/11 13:18:04;;;;;;;4.22;3.83;;;23.50;99.90;;;;;;6234037;27;90141;-66
2022/10/11 13:21:16;;;;;;;4.50;4.10;;;23.50;99.90;;;;;;6249730;27;89427;-66
2022/10/11 13:24:19;;;;;;;4.18;3.78;;;23.50;99.90;;;;;;6242488;27;89014;-67
2022/10/11 13:27:25;;;;;;;4.85;4.35;;;23.50;99.90;;;;;;6245691;27;89030;-67
2022/10/11 13:30:30;;;;;;;5.03;4.50;;;23.50;99.90;;;;;;6253260;27;89342;-67
2022/10/11 13:33:35;;;;;;;4.45;4.05;;;23.50;99.90;;;;;;6258873;27;89052;-67
2022/10/11 13:36:37;;;;;;;4.45;4.05;;;23.50;99.90;;;;;;6259376;27;89096;-66
2022/10/11 13:39:39;;;;;;;4.15;3.75;;;23.60;99.90;;;;;;6258373;27;88284;-67
2022/10/11 13:42:42;;;;;;;4.38;3.97;;;23.60;99.90;;;;;;6257415;27;89033;-66
2022/10/11 13:45:45;;;;;;;4.25;3.85;;;23.50;99.90;;;;;;6249568;27;89572;-67
2022/10/11 13:48:57;;;;;;;3.88;3.47;;;23.50;99.90;;;;;;6252361;27;90008;-67
2022/10/11 13:52:01;;;;;;;4.07;3.72;;;23.50;99.90;;;;;;6256851;27;88969;-67
2022/10/11 13:55:13;;;;;;;3.85;3.53;;;23.50;99.90;;;;;;6258905;27;89179;-67
2022/10/11 13:58:21;;;;;;;4.20;3.80;;;23.50;99.90;;;;;;6257508;27;89503;-67
2022/10/11 14:01:26;;;;;;;4.15;3.70;;;23.60;99.90;;;;;;6241083;27;87882;-67
2022/10/11 14:04:39;;;;;;;4.13;3.83;;;23.60;99.90;;;;;;6247025;27;89334;-67
2022/10/11 14:07:41;;;;;;;3.95;3.60;;;23.50;99.90;;;;;;6239821;27;89024;-67
2022/10/11 14:10:46;;;;;;;3.80;3.50;;;23.50;99.90;;;;;;6249848;27;88715;-66
2022/10/11 14:13:48;;;;;;;4.18;3.78;;;23.50;99.90;;;;;;6258310;27;87990;-67
2022/10/11 14:16:57;;;;;;;4.53;4.00;;;23.60;99.90;;;;;;6258188;27;88124;-67
2022/10/11 14:20:12;;;;;;;3.85;3.55;;;23.60;99.90;;;;;;6256445;27;90099;-67
2022/10/11 14:23:14;;;;;;;4.30;3.90;;;23.50;99.90;;;;;;6236916;27;90045;-67
2022/10/11 14:26:17;;;;;;;4.07;3.65;;;23.50;99.90;;;;;;6246958;27;89055;-67
2022/10/11 14:29:23;;;;;;;3.70;3.40;;;23.50;99.90;;;;;;6246773;27;89038;-67
2022/10/11 14:32:30;;;;;;;3.80;3.40;;;23.50;99.90;;;;;;6250830;27;88022;-67
2022/10/11 14:35:32;;;;;;;3.85;3.47;;;23.50;99.90;;;;;;6257840;27;88959;-67
2022/10/11 14:38:35;;;;;;;4.15;3.85;;;23.50;99.90;;;;;;6258350;27;89473;-67
2022/10/11 14:41:37;;;;;;;4.15;3.70;;;23.50;99.90;;;;;;6254413;27;88685;-67
2022/10/11 14:44:39;;;;;;;3.78;3.45;;;23.50;99.90;;;;;;6232751;27;89401;-67
2022/10/11 14:47:42;;;;;;;3.70;3.40;;;23.60;99.90;;;;;;6245254;27;89064;-67
2022/10/11 14:50:49;;;;;;;4.00;3.60;;;23.60;99.90;;;;;;6255162;27;89960;-67
2022/10/11 14:53:51;;;;;;;3.90;3.60;;;23.60;99.90;;;;;;6244791;27;89083;-67
2022/10/11 14:56:55;;;;;;;3.75;3.45;;;23.50;99.90;;;;;;6250442;27;89124;-67
2022/10/11 14:59:56;;;;;;;3.60;3.30;;;23.60;99.90;;;;;;6238660;27;89022;-67
2022/10/11 15:03:00;;;;;;;3.63;3.33;;;23.60;99.90;;;;;;6257246;27;89106;-66
2022/10/11 15:06:02;;;;;;;5.22;3.63;;;23.60;99.90;;;;;;6253333;27;89142;-67
2022/10/11 15:09:04;;;;;;;3.63;3.33;;;23.60;99.90;;;;;;6248840;27;89359;-67
2022/10/11 15:12:06;;;;;;;4.07;3.67;;;23.50;99.90;;;;;;6244266;27;88418;-67
2022/10/11 15:15:09;;;;;;;3.50;3.20;;;23.60;99.90;;;;;;6256321;27;88984;-67
2022/10/11 15:18:15;;;;;;;3.70;3.40;;;23.60;99.90;;;;;;6255146;27;89032;-67
2022/10/11 15:21:18;;;;;;;3.67;3.30;;;23.60;99.90;;;;;;6248008;27;90021;-67
2022/10/11 15:24:20;;;;;;;3.60;3.30;;;23.60;99.90;;;;;;6249241;27;88994;-66
2022/10/11 15:27:24;;;;;;;4.20;3.63;;;23.60;99.90;;;;;;6240867;27;89078;-67
2022/10/11 15:30:29;;;;;;;3.78;3.30;;;23.60;99.90;;;;;;6232651;27;88930;-67
2022/10/11 15:33:32;;;;;;;3.53;3.22;;;23.60;99.90;;;;;;6232160;27;89410;-67
2022/10/11 15:36:35;;;;;;;3.58;3.08;;;23.60;99.90;;;;;;6257375;27;89089;-67
2022/10/11 15:39:37;;;;;;;3.60;3.30;;;23.60;99.90;;;;;;6256447;27;89193;-67
2022/10/11 15:42:40;;;;;;;3.40;3.10;;;23.60;99.90;;;;;;6242234;27;88352;-67
2022/10/11 15:45:42;;;;;;;3.58;3.15;;;23.60;99.90;;;;;;6254237;27;88369;-67
2022/10/11 15:48:46;;;;;;;3.47;3.17;;;23.60;99.90;;;;;;6243415;27;88209;-67
2022/10/11 15:51:48;;;;;;;3.38;3.08;;;23.60;99.90;;;;;;6255792;27;90016;-67
2022/10/11 15:54:50;;;;;;;3.50;3.20;;;23.50;99.90;;;;;;6254934;27;89166;-67
2022/10/11 15:57:52;;;;;;;3.88;3.47;;;23.50;99.90;;;;;;6255554;27;89675;-67
2022/10/11 16:00:56;;;;;;;3.55;3.20;;;23.60;99.90;;;;;;6242630;27;89049;-67